Time;durP1;ratioP1;P1;durP2;ratioP2;P2;SDS_P1;SDS_P2;PMS_P1;PMS_P2;Temp;Humidity;BMP_temperature;BMP_pressure;BME280_temperature;BME280_humidity;BME280_pressure;Samples;Min_cycle;Max_cycle;Signal;HPM_P1;HPM_P2
2022/12/22 03:28:54;;;;;;;4.93;3.93;;;3.00;99.90;;;;;;8274023;28;20198;-68
2022/12/22 03:32:55;;;;;;;4.20;3.53;;;3.20;99.90;;;;;;8276018;28;20293;-68
2022/12/22 03:36:56;;;;;;;6.13;4.00;;;3.50;99.90;;;;;;8273055;28;20268;-68
2022/12/22 03:40:57;;;;;;;5.03;3.47;;;3.70;99.90;;;;;;8271692;28;20190;-68
2022/12/22 03:49:18;;;;;;;5.00;3.63;;;3.90;99.90;;;;;;8270515;28;20307;-68
2022/12/22 03:53:19;;;;;;;5.10;3.33;;;3.90;99.90;;;;;;8272584;28;20578;-68
2022/12/22 03:57:19;;;;;;;4.00;3.20;;;4.00;99.90;;;;;;8277323;28;20218;-69
2022/12/22 04:01:21;;;;;;;4.47;3.50;;;4.20;99.90;;;;;;8272777;28;20191;-69
2022/12/22 04:05:21;;;;;;;16.50;10.20;;;4.40;99.90;;;;;;8277208;28;20241;-69
2022/12/22 04:09:23;;;;;;;22.17;13.40;;;4.30;99.90;;;;;;8271170;28;20222;-68
2022/12/22 04:13:24;;;;;;;25.83;18.23;;;4.00;99.90;;;;;;8269015;28;20182;-68
2022/12/22 04:17:25;;;;;;;23.50;16.90;;;3.80;99.90;;;;;;8268210;28;20188;-68
2022/12/22 04:21:26;;;;;;;18.17;11.90;;;3.70;99.90;;;;;;8270562;28;20183;-69
2022/12/22 04:25:28;;;;;;;10.40;6.30;;;3.60;99.90;;;;;;8273620;28;20294;-69
2022/12/22 04:29:29;;;;;;;6.37;4.40;;;3.50;99.90;;;;;;8275041;28;20187;-68
2022/12/22 04:33:30;;;;;;;5.10;3.60;;;3.60;99.90;;;;;;8275709;28;20628;-68
2022/12/22 04:37:31;;;;;;;4.80;3.50;;;3.90;99.90;;;;;;8276447;28;20183;-68
2022/12/22 04:41:32;;;;;;;3.97;3.10;;;4.20;99.90;;;;;;8277343;28;20197;-68
2022/12/22 04:45:32;;;;;;;4.23;3.70;;;4.40;99.90;;;;;;8275484;28;20246;-68
2022/12/22 04:49:33;;;;;;;4.33;3.60;;;4.70;99.90;;;;;;8276898;28;20183;-69
2022/12/22 04:53:34;;;;;;;5.77;4.30;;;4.90;99.90;;;;;;8275273;28;20614;-69
2022/12/22 04:57:35;;;;;;;5.37;4.43;;;5.10;99.90;;;;;;8270867;28;20497;-68
2022/12/22 05:01:36;;;;;;;4.40;4.00;;;5.30;99.90;;;;;;8276690;28;20199;-69
2022/12/22 05:05:37;;;;;;;4.57;3.67;;;5.60;99.90;;;;;;8276620;28;20222;-69
2022/12/22 05:09:39;;;;;;;5.17;4.00;;;5.70;99.90;;;;;;8279244;28;20226;-69
2022/12/22 05:13:40;;;;;;;3.67;3.30;;;5.90;99.90;;;;;;8273917;28;20184;-69
2022/12/22 05:17:40;;;;;;;5.27;3.90;;;6.00;99.90;;;;;;8271688;28;20256;-69
2022/12/22 05:21:41;;;;;;;4.80;3.87;;;6.10;99.90;;;;;;8279072;28;20219;-69
2022/12/22 05:25:42;;;;;;;5.23;4.10;;;6.30;99.90;;;;;;8272812;28;20202;-68
2022/12/22 05:29:43;;;;;;;5.07;3.90;;;6.30;99.90;;;;;;8274200;28;20198;-69
2022/12/22 05:33:44;;;;;;;5.23;3.87;;;6.40;99.90;;;;;;8283826;28;20225;-69
2022/12/22 05:37:44;;;;;;;3.83;3.43;;;6.40;99.90;;;;;;8275955;28;20183;-69
2022/12/22 05:41:45;;;;;;;4.23;3.10;;;6.50;99.90;;;;;;8288999;28;20193;-69
2022/12/22 05:45:46;;;;;;;3.80;2.70;;;6.50;99.90;;;;;;8271904;28;20309;-69
2022/12/22 05:49:47;;;;;;;4.20;3.13;;;6.50;99.90;;;;;;8274708;28;20187;-68
2022/12/22 05:53:48;;;;;;;5.10;3.60;;;6.50;99.90;;;;;;8268641;28;20187;-69
2022/12/22 05:57:48;;;;;;;5.17;3.57;;;6.50;99.90;;;;;;8274699;28;20213;-68
2022/12/22 06:01:49;;;;;;;3.77;3.03;;;6.40;99.90;;;;;;8268284;28;20195;-69
2022/12/22 06:05:50;;;;;;;4.20;3.43;;;6.40;99.90;;;;;;8273952;28;20210;-69
2022/12/22 06:09:51;;;;;;;4.70;3.30;;;6.40;99.90;;;;;;8276072;28;20186;-69
2022/12/22 06:13:51;;;;;;;4.00;2.90;;;6.50;99.90;;;;;;8281231;28;20210;-69
2022/12/22 06:17:52;;;;;;;4.87;3.57;;;6.50;99.90;;;;;;8293352;28;20223;-69
2022/12/22 06:21:53;;;;;;;4.50;3.33;;;6.60;99.90;;;;;;8272815;28;20237;-69
2022/12/22 06:26:00;;;;;;;4.23;3.60;;;6.50;99.90;;;;;;8274210;28;20214;-69
2022/12/22 06:30:01;;;;;;;4.57;3.40;;;6.50;99.90;;;;;;8271308;28;20187;-70
2022/12/22 06:34:01;;;;;;;4.83;3.47;;;6.50;99.90;;;;;;8292792;28;20222;-69
2022/12/22 06:38:02;;;;;;;5.50;4.13;;;6.50;99.90;;;;;;8276723;28;20194;-69
2022/12/22 06:46:22;;;;;;;5.17;4.03;;;6.50;99.90;;;;;;8277896;28;20597;-69
2022/12/22 06:50:23;;;;;;;4.97;3.83;;;6.50;99.90;;;;;;8276919;28;20187;-69
2022/12/22 06:54:24;;;;;;;5.83;4.83;;;6.50;99.90;;;;;;8287905;28;20179;-69
2022/12/22 06:58:25;;;;;;;6.30;4.33;;;6.60;99.90;;;;;;8274889;28;20191;-69
2022/12/22 07:02:25;;;;;;;5.03;3.47;;;6.60;99.90;;;;;;8272719;28;20230;-69
2022/12/22 07:06:26;;;;;;;4.90;3.90;;;6.60;99.90;;;;;;8269937;28;20749;-69
2022/12/22 07:14:46;;;;;;;7.33;5.97;;;6.60;99.90;;;;;;8272378;28;20207;-69
2022/12/22 07:18:47;;;;;;;14.63;10.53;;;6.50;99.90;;;;;;8279436;28;20207;-69
2022/12/22 07:22:48;;;;;;;14.13;11.73;;;6.30;99.90;;;;;;8277442;28;20264;-69
2022/12/22 07:26:49;;;;;;;7.17;5.03;;;6.10;99.90;;;;;;8274963;28;20238;-69
2022/12/22 07:30:51;;;;;;;6.47;4.80;;;6.10;99.90;;;;;;8278926;28;20462;-69
2022/12/22 07:34:51;;;;;;;5.27;3.90;;;6.20;99.90;;;;;;8290936;28;20226;-69
2022/12/22 07:38:52;;;;;;;4.60;3.57;;;6.40;99.90;;;;;;8291105;28;20270;-69
2022/12/22 07:42:57;;;;;;;4.83;3.80;;;6.60;99.90;;;;;;8273168;28;20222;-69
2022/12/22 07:46:58;;;;;;;3.77;3.27;;;6.80;99.90;;;;;;8281679;28;20218;-69
2022/12/22 07:51:03;;;;;;;4.27;3.20;;;7.00;99.90;;;;;;8272805;28;20187;-69
2022/12/22 07:55:04;;;;;;;3.13;2.80;;;7.10;99.90;;;;;;8273080;28;20218;-69
2022/12/22 07:59:05;;;;;;;3.63;3.03;;;7.20;99.90;;;;;;8287620;28;20202;-69
2022/12/22 08:03:08;;;;;;;3.77;2.97;;;7.40;99.90;;;;;;8281635;28;20254;-70
2022/12/22 08:07:08;;;;;;;4.77;3.13;;;7.60;99.90;;;;;;8274637;28;20292;-69
2022/12/22 08:11:10;;;;;;;3.30;2.70;;;7.60;99.90;;;;;;8272845;28;20187;-69
2022/12/22 08:15:11;;;;;;;4.07;2.77;;;7.70;99.90;;;;;;8278748;28;20202;-69
2022/12/22 08:19:12;;;;;;;3.43;3.00;;;7.70;99.90;;;;;;8293319;28;20191;-70
2022/12/22 08:23:13;;;;;;;4.30;2.87;;;7.80;99.90;;;;;;8278350;28;20253;-69
2022/12/22 08:27:17;;;;;;;3.83;3.13;;;7.80;99.90;;;;;;8276457;28;20218;-69
2022/12/22 08:31:18;;;;;;;3.67;2.80;;;7.90;99.90;;;;;;8286766;28;20314;-74
2022/12/22 08:35:19;;;;;;;3.77;3.23;;;7.90;99.90;;;;;;8290616;28;20219;-70
2022/12/22 08:39:22;;;;;;;4.80;2.97;;;8.00;99.90;;;;;;8277664;28;20191;-70
2022/12/22 08:43:24;;;;;;;6.17;3.30;;;8.10;99.90;;;;;;8278787;28;20201;-69
2022/12/22 08:47:25;;;;;;;4.27;2.83;;;8.10;99.90;;;;;;8275416;28;20265;-69
2022/12/22 08:51:26;;;;;;;4.20;2.70;;;8.20;99.90;;;;;;8275720;28;20246;-69
2022/12/22 08:55:27;;;;;;;3.87;2.80;;;8.30;99.90;;;;;;8276656;28;20218;-69
2022/12/22 08:59:28;;;;;;;2.93;2.17;;;8.30;99.90;;;;;;8272031;28;20188;-71
2022/12/22 09:03:29;;;;;;;3.60;2.43;;;8.40;99.90;;;;;;8266570;28;20220;-70
2022/12/22 09:07:30;;;;;;;4.50;2.40;;;8.50;99.90;;;;;;8265572;28;20210;-71
2022/12/22 09:11:31;;;;;;;2.37;2.07;;;8.50;99.90;;;;;;8276082;28;20195;-69
2022/12/22 09:15:32;;;;;;;2.70;1.77;;;8.60;99.90;;;;;;8266900;28;20184;-69
2022/12/22 09:19:33;;;;;;;4.23;2.17;;;8.70;99.90;;;;;;8274712;28;20205;-69
2022/12/22 09:23:34;;;;;;;1.77;1.63;;;8.80;99.90;;;;;;8285869;28;20224;-69
2022/12/22 09:27:34;;;;;;;2.93;1.63;;;8.90;1.00;;;;;;8283523;28;20227;-69
2022/12/22 09:31:35;;;;;;;6.37;4.13;;;8.90;99.90;;;;;;8272838;28;20188;-69
2022/12/22 09:35:40;;;;;;;55.60;37.80;;;9.00;1.00;;;;;;8272787;28;20220;-70
2022/12/22 09:39:41;;;;;;;56.87;34.33;;;9.10;99.90;;;;;;8266799;28;20333;-69
2022/12/22 09:43:43;;;;;;;26.17;17.27;;;9.10;99.90;;;;;;8275049;28;20208;-68
2022/12/22 09:47:45;;;;;;;4.93;3.17;;;9.20;99.90;;;;;;8270088;28;20564;-69
2022/12/22 09:51:50;;;;;;;3.70;2.50;;;9.40;99.90;;;;;;8270938;28;20178;-69
2022/12/22 09:55:51;;;;;;;3.97;2.80;;;9.70;1.00;;;;;;8270057;28;20194;-69
2022/12/22 09:59:52;;;;;;;22.03;13.00;;;9.90;1.00;;;;;;8272664;28;20194;-69
2022/12/22 10:04:08;;;;;;;6.63;4.03;;;10.20;99.90;;;;;;8257011;28;20287;-69
2022/12/22 10:08:26;;;;;;;6.13;4.40;;;10.40;1.00;;;;;;8262432;28;20226;-70
2022/12/22 10:12:27;;;;;;;12.80;5.93;;;10.30;1.00;;;;;;8288919;28;20197;-70
2022/12/22 10:16:29;;;;;;;13.43;5.97;;;10.20;18.90;;;;;;8272090;28;20206;-69
2022/12/22 10:20:30;;;;;;;7.50;4.83;;;10.10;99.90;;;;;;8273074;28;20237;-69
2022/12/22 10:24:34;;;;;;;3.03;2.30;;;9.90;99.90;;;;;;8265070;28;20191;-70
2022/12/22 10:28:46;;;;;;;3.43;3.10;;;9.70;1.00;;;;;;8290681;28;20197;-70
2022/12/22 10:33:04;;;;;;;20.70;11.47;;;9.50;1.00;;;;;;8270652;28;20217;-70
2022/12/22 10:37:05;;;;;;;23.73;9.00;;;9.50;99.90;;;;;;8270326;28;20209;-69
2022/12/22 10:41:15;;;;;;;20.73;8.37;;;9.50;99.90;;;;;;8269137;28;20217;-69
2022/12/22 10:45:22;;;;;;;38.27;13.33;;;9.50;99.90;;;;;;8271237;28;20233;-69
2022/12/22 10:49:28;;;;;;;55.87;17.70;;;9.50;99.90;;;;;;8268680;28;20209;-70
2022/12/22 10:53:48;;;;;;;31.43;10.20;;;9.80;81.70;;;;;;8274238;28;20258;-69
2022/12/22 10:57:49;;;;;;;15.53;5.57;;;10.00;1.00;;;;;;8256411;28;20195;-71
2022/12/22 11:01:50;;;;;;;88.10;23.97;;;10.00;99.90;;;;;;8277635;28;20246;-69
2022/12/22 11:05:51;;;;;;;56.37;15.53;;;10.10;53.80;;;;;;8280918;28;20222;-70
2022/12/22 11:09:51;;;;;;;33.27;11.87;;;10.10;14.40;;;;;;8269503;28;20349;-70
2022/12/22 11:14:01;;;;;;;12.33;5.30;;;10.20;1.00;;;;;;8287434;28;20194;-70
2022/12/22 11:18:10;;;;;;;77.20;29.67;;;10.20;99.90;;;;;;8270821;28;20206;-71
2022/12/22 11:22:44;;;;;;;355.63;121.47;;;10.30;99.90;;;;;;8290174;28;20203;-71
2022/12/22 11:27:03;;;;;;;40.47;16.83;;;10.30;99.90;;;;;;8277779;28;20224;-71
2022/12/22 11:31:23;;;;;;;21.40;8.83;;;10.30;99.90;;;;;;8288460;28;20197;-71
2022/12/22 11:36:01;;;;;;;46.20;17.13;;;10.40;19.80;;;;;;8271778;28;20241;-70
2022/12/22 11:40:27;;;;;;;10.20;4.37;;;10.50;1.00;;;;;;8287663;28;20488;-70
2022/12/22 11:44:34;;;;;;;32.03;10.00;;;10.70;99.90;;;;;;8269200;28;20199;-70
2022/12/22 11:48:43;;;;;;;7.60;3.47;;;10.70;99.90;;;;;;8273731;28;20622;-71
2022/12/22 11:53:05;;;;;;;13.83;4.60;;;10.70;99.90;;;;;;8268336;28;20195;-70
2022/12/22 11:57:09;;;;;;;20.43;7.13;;;10.60;99.90;;;;;;8267621;28;20307;-70
2022/12/22 12:02:01;;;;;;;37.47;12.07;;;10.50;99.90;;;;;;8265721;28;20183;-70
2022/12/22 12:06:24;;;;;;;25.90;9.13;;;10.50;99.90;;;;;;8265127;28;20314;-70
2022/12/22 12:10:41;;;;;;;19.63;8.57;;;10.60;99.90;;;;;;8279414;28;20189;-71
2022/12/22 12:15:03;;;;;;;13.20;6.50;;;10.60;99.90;;;;;;8273163;28;20190;-70
2022/12/22 12:19:22;;;;;;;22.57;8.93;;;10.80;99.90;;;;;;8285954;28;20189;-70
2022/12/22 12:24:04;;;;;;;17.80;7.60;;;10.70;99.90;;;;;;8285040;28;20254;-71
2022/12/22 12:28:44;;;;;;;15.30;6.80;;;10.60;99.90;;;;;;8268067;28;20297;-68
2022/12/22 12:32:50;;;;;;;32.97;12.00;;;10.70;1.00;;;;;;8282376;28;20211;-72
2022/12/22 12:36:55;;;;;;;13.70;5.90;;;10.70;99.90;;;;;;8262661;28;20208;-70
2022/12/22 12:41:05;;;;;;;9.57;4.87;;;10.70;99.90;;;;;;8267149;28;20315;-70
2022/12/22 12:45:32;;;;;;;18.13;7.93;;;10.70;99.90;;;;;;8265485;28;20203;-71
2022/12/22 12:49:33;;;;;;;14.80;6.90;;;10.60;99.90;;;;;;8281806;28;20195;-71
2022/12/22 12:53:34;;;;;;;16.17;7.50;;;10.60;99.90;;;;;;8266514;28;20438;-71
2022/12/22 12:57:46;;;;;;;7.73;4.33;;;10.60;99.90;;;;;;8289824;28;20193;-72
2022/12/22 13:01:54;;;;;;;32.10;12.27;;;10.60;99.90;;;;;;8289147;28;20198;-70
2022/12/22 13:05:58;;;;;;;47.07;13.87;;;10.60;99.90;;;;;;8283062;28;20276;-71
2022/12/22 13:10:07;;;;;;;49.43;15.40;;;10.50;99.90;;;;;;8267725;28;20334;-71
2022/12/22 13:14:08;;;;;;;47.07;15.40;;;10.50;99.90;;;;;;8266348;28;20194;-71
2022/12/22 13:18:24;;;;;;;11.30;5.67;;;10.50;99.90;;;;;;8271019;28;20194;-71
2022/12/22 13:22:25;;;;;;;21.73;9.70;;;10.60;99.90;;;;;;8280755;28;20866;-73
2022/12/22 13:26:38;;;;;;;25.97;10.90;;;10.60;99.90;;;;;;8270934;28;20226;-71
2022/12/22 13:30:39;;;;;;;50.77;16.27;;;10.60;99.90;;;;;;8274698;28;20218;-71
2022/12/22 13:34:51;;;;;;;15.90;6.70;;;10.50;99.90;;;;;;8267986;28;20227;-73
2022/12/22 13:39:19;;;;;;;19.23;8.53;;;10.50;99.90;;;;;;8270464;28;20227;-71
2022/12/22 13:43:25;;;;;;;11.27;8.80;;;10.50;99.90;;;;;;8264823;28;20207;-71
2022/12/22 13:47:32;;;;;;;14.90;11.17;;;10.40;99.90;;;;;;8282456;28;20237;-70
2022/12/22 13:51:37;;;;;;;28.50;17.67;;;10.40;99.90;;;;;;8285844;28;20210;-72
2022/12/22 13:55:38;;;;;;;10.70;8.70;;;10.30;99.90;;;;;;8263835;28;20396;-71
2022/12/22 13:59:42;;;;;;;68.40;50.00;;;10.30;99.90;;;;;;8273036;28;20200;-71
2022/12/22 14:04:06;;;;;;;69.77;46.13;;;10.30;99.90;;;;;;8266474;28;20200;-71
2022/12/22 14:08:09;;;;;;;55.40;38.50;;;10.20;99.90;;;;;;8268201;28;20271;-71
2022/12/22 14:12:23;;;;;;;13.90;10.80;;;10.20;1.00;;;;;;8281788;28;20209;-71
2022/12/22 14:16:23;;;;;;;18.53;13.20;;;10.20;1.00;;;;;;8270640;28;20803;-71
2022/12/22 14:20:36;;;;;;;46.77;37.07;;;10.10;1.00;;;;;;8267557;28;20259;-73
2022/12/22 14:25:03;;;;;;;66.00;50.90;;;10.00;1.00;;;;;;8265399;28;20190;-71
2022/12/22 14:29:10;;;;;;;48.30;38.23;;;10.00;99.90;;;;;;8265763;28;20325;-72
2022/12/22 14:33:22;;;;;;;9.33;7.83;;;9.90;99.90;;;;;;8260097;28;20322;-71
2022/12/22 14:37:23;;;;;;;13.63;11.57;;;9.80;99.90;;;;;;8262918;28;20201;-71
2022/12/22 14:41:40;;;;;;;13.30;11.10;;;9.80;99.90;;;;;;8267196;28;20200;-71
2022/12/22 14:45:41;;;;;;;13.77;11.50;;;9.70;99.90;;;;;;8283084;28;20213;-71
2022/12/22 14:49:51;;;;;;;21.00;17.90;;;9.70;1.00;;;;;;8269566;28;20185;-70
2022/12/22 14:53:58;;;;;;;7.83;6.07;;;9.60;1.00;;;;;;8281904;28;20270;-71
2022/12/22 14:58:11;;;;;;;11.50;10.40;;;9.60;1.00;;;;;;8267933;28;20185;-70
2022/12/22 15:02:24;;;;;;;7.93;7.00;;;9.60;1.00;;;;;;8279603;28;20221;-70
2022/12/22 15:06:28;;;;;;;38.70;22.87;;;9.60;1.00;;;;;;8267696;28;20228;-70
2022/12/22 15:10:41;;;;;;;59.53;35.47;;;9.60;99.90;;;;;;8267840;28;20232;-70
2022/12/22 15:14:46;;;;;;;19.03;13.13;;;9.60;99.90;;;;;;8280289;28;20197;-71
2022/12/22 15:18:49;;;;;;;5.63;3.90;;;9.60;99.90;;;;;;8282778;28;20201;-70
2022/12/22 15:22:50;;;;;;;4.47;3.50;;;9.60;99.90;;;;;;8285733;28;20212;-69
2022/12/22 15:26:51;;;;;;;6.20;4.70;;;9.50;99.90;;;;;;8267819;28;20217;-69
2022/12/22 15:30:52;;;;;;;61.50;33.70;;;9.50;99.90;;;;;;8264902;28;20195;-70
2022/12/22 15:34:52;;;;;;;55.90;32.20;;;9.50;1.00;;;;;;8270069;28;20243;-70
2022/12/22 15:38:53;;;;;;;22.53;13.03;;;9.50;1.00;;;;;;8266638;28;20360;-70
2022/12/22 15:42:54;;;;;;;28.43;17.50;;;9.60;99.90;;;;;;8279229;28;20206;-69
2022/12/22 15:46:56;;;;;;;31.73;16.43;;;9.60;99.90;;;;;;8263691;28;20213;-69
2022/12/22 15:50:58;;;;;;;22.13;12.47;;;9.60;99.90;;;;;;8270806;28;20217;-69
2022/12/22 15:54:59;;;;;;;14.33;8.33;;;9.60;99.90;;;;;;8267575;28;20204;-70
2022/12/22 15:59:01;;;;;;;46.20;28.80;;;9.60;99.90;;;;;;8267057;28;20201;-69
2022/12/22 16:03:03;;;;;;;67.07;30.17;;;9.50;99.90;;;;;;8266524;28;20186;-68
2022/12/22 16:07:05;;;;;;;43.17;20.70;;;9.40;99.90;;;;;;8266586;28;20444;-68
2022/12/22 16:11:07;;;;;;;13.50;8.80;;;9.40;1.00;;;;;;8267502;28;20229;-69
2022/12/22 16:15:12;;;;;;;15.50;8.43;;;9.40;1.00;;;;;;8263730;28;20587;-69
2022/12/22 16:19:17;;;;;;;10.13;5.97;;;9.50;1.00;;;;;;8263623;28;20197;-68
2022/12/22 16:23:27;;;;;;;4.60;3.83;;;9.50;99.90;;;;;;8264485;28;21388;-69
2022/12/22 16:27:30;;;;;;;8.47;5.80;;;9.50;99.90;;;;;;8273639;28;20214;-69
2022/12/22 16:31:30;;;;;;;6.97;4.33;;;9.50;99.90;;;;;;8262168;28;20237;-69
2022/12/22 16:35:32;;;;;;;6.27;4.03;;;9.50;99.90;;;;;;8268453;28;20217;-70
2022/12/22 16:39:33;;;;;;;7.20;5.50;;;9.50;99.90;;;;;;8267823;28;20187;-68
2022/12/22 16:43:37;;;;;;;6.13;4.60;;;9.50;99.90;;;;;;8269445;28;20237;-68
2022/12/22 16:47:38;;;;;;;4.93;3.80;;;9.50;99.90;;;;;;8269036;28;20220;-69
2022/12/22 16:51:48;;;;;;;8.13;3.90;;;9.50;99.90;;;;;;8275842;28;20196;-68
2022/12/22 16:55:49;;;;;;;7.40;4.30;;;9.60;99.90;;;;;;8285376;28;20928;-67
2022/12/22 16:59:50;;;;;;;7.30;4.43;;;9.60;21.20;;;;;;8267787;28;20216;-68
2022/12/22 17:03:51;;;;;;;26.47;16.70;;;9.70;1.00;;;;;;8274734;28;20233;-69
2022/12/22 17:07:53;;;;;;;19.37;12.80;;;9.70;1.00;;;;;;8250937;28;20204;-68
2022/12/22 17:11:54;;;;;;;10.97;7.90;;;9.80;99.90;;;;;;8263539;28;20615;-68
2022/12/22 17:15:55;;;;;;;6.93;5.37;;;9.80;99.90;;;;;;8260501;28;20200;-68
2022/12/22 17:19:56;;;;;;;8.00;6.00;;;9.90;99.90;;;;;;8247871;28;20193;-69
2022/12/22 17:24:03;;;;;;;7.40;5.50;;;9.90;99.90;;;;;;8246404;28;20183;-68
2022/12/22 17:28:03;;;;;;;10.43;4.90;;;9.90;99.90;;;;;;8249427;28;20212;-68
2022/12/22 17:32:04;;;;;;;17.30;12.50;;;9.90;99.90;;;;;;8271766;28;20223;-68
2022/12/22 17:36:07;;;;;;;17.37;12.17;;;9.90;1.00;;;;;;8248183;28;20232;-68
2022/12/22 17:40:23;;;;;;;27.53;16.90;;;9.80;1.00;;;;;;8245723;28;20248;-69
2022/12/22 17:44:26;;;;;;;19.80;14.53;;;9.70;99.90;;;;;;8268517;28;20202;-68
2022/12/22 17:48:27;;;;;;;25.07;16.23;;;9.60;99.90;;;;;;8268785;28;20215;-68
2022/12/22 17:52:28;;;;;;;23.90;14.93;;;9.50;99.90;;;;;;8265603;28;20213;-69
2022/12/22 17:56:30;;;;;;;9.27;6.67;;;9.40;1.00;;;;;;8265132;28;20189;-69
2022/12/22 18:00:31;;;;;;;9.30;6.50;;;9.30;37.10;;;;;;8265028;28;20196;-68
2022/12/22 18:04:32;;;;;;;17.60;13.40;;;9.10;95.80;;;;;;8271574;28;20191;-69
2022/12/22 18:08:33;;;;;;;8.47;6.17;;;9.10;99.90;;;;;;8269793;28;20223;-68
2022/12/22 18:12:34;;;;;;;10.23;7.87;;;9.00;99.90;;;;;;8270957;28;20175;-69
2022/12/22 18:16:35;;;;;;;12.60;10.90;;;8.90;1.00;;;;;;8262373;28;20243;-70
2022/12/22 18:20:35;;;;;;;8.10;5.63;;;8.90;35.50;;;;;;8263868;28;20224;-69
2022/12/22 18:24:36;;;;;;;40.77;22.97;;;8.90;1.00;;;;;;8268593;28;20179;-68
2022/12/22 18:28:37;;;;;;;12.67;8.97;;;8.80;99.90;;;;;;8246248;28;20215;-69
2022/12/22 18:32:39;;;;;;;10.67;9.30;;;8.70;99.90;;;;;;8265285;28;20203;-69
2022/12/22 18:36:41;;;;;;;8.33;5.47;;;8.70;99.90;;;;;;8261853;28;20223;-68
2022/12/22 18:40:42;;;;;;;24.13;17.40;;;8.70;99.90;;;;;;8254367;28;20183;-70
2022/12/22 18:44:43;;;;;;;10.90;7.57;;;8.60;99.90;;;;;;8263009;28;20199;-69
2022/12/22 18:48:44;;;;;;;17.07;12.43;;;8.50;99.90;;;;;;8249628;28;20198;-69
2022/12/22 18:52:46;;;;;;;5.37;4.10;;;8.50;99.90;;;;;;8263399;28;20241;-69
2022/12/22 18:56:48;;;;;;;27.73;20.03;;;8.50;99.90;;;;;;8272188;28;21058;-69
2022/12/22 19:00:50;;;;;;;18.97;14.67;;;8.50;99.90;;;;;;8261237;28;20210;-68
2022/12/22 19:04:52;;;;;;;15.97;13.23;;;8.50;99.90;;;;;;8266103;28;20365;-69
2022/12/22 19:08:53;;;;;;;5.90;4.57;;;8.50;99.90;;;;;;8251088;28;20733;-69
2022/12/22 19:12:56;;;;;;;4.53;3.53;;;8.50;99.90;;;;;;8270394;28;20183;-69
2022/12/22 19:16:57;;;;;;;21.13;12.27;;;8.50;99.90;;;;;;8266018;28;20229;-69
2022/12/22 19:20:58;;;;;;;10.53;6.67;;;8.50;99.90;;;;;;8253528;28;20183;-70
2022/12/22 19:24:59;;;;;;;6.97;4.87;;;8.50;99.90;;;;;;8265036;28;20189;-70
2022/12/22 19:29:00;;;;;;;4.17;3.73;;;8.50;99.90;;;;;;8256837;28;20195;-69
2022/12/22 19:33:03;;;;;;;4.53;3.63;;;8.60;99.90;;;;;;8263556;28;20212;-69
2022/12/22 19:37:03;;;;;;;3.10;2.80;;;8.60;99.90;;;;;;8270281;28;20194;-69
2022/12/22 19:41:22;;;;;;;3.80;2.97;;;8.60;99.90;;;;;;8251010;28;20340;-69
2022/12/22 19:45:34;;;;;;;6.77;4.17;;;8.60;99.90;;;;;;8251053;28;20278;-70
2022/12/22 19:49:35;;;;;;;6.60;4.87;;;8.60;99.90;;;;;;8250196;28;20222;-69
2022/12/22 19:53:35;;;;;;;4.17;3.53;;;8.60;99.90;;;;;;8269467;28;20190;-70
2022/12/22 19:57:40;;;;;;;5.70;4.17;;;8.60;99.90;;;;;;8252775;28;20187;-70
2022/12/22 20:01:41;;;;;;;8.50;5.03;;;8.60;99.90;;;;;;8249072;28;20195;-69
2022/12/22 20:05:41;;;;;;;2.73;2.53;;;8.60;99.90;;;;;;8251669;28;20279;-69
2022/12/22 20:09:42;;;;;;;3.80;3.40;;;8.60;99.90;;;;;;8261854;28;21461;-70
2022/12/22 20:13:44;;;;;;;8.47;5.67;;;8.50;99.90;;;;;;8265006;28;20478;-69
2022/12/22 20:17:47;;;;;;;2.97;2.40;;;8.50;99.90;;;;;;8265143;28;20533;-69
2022/12/22 20:21:48;;;;;;;10.30;5.00;;;8.50;99.90;;;;;;8273480;28;20257;-68
2022/12/22 20:26:01;;;;;;;7.07;4.20;;;8.40;99.90;;;;;;8256923;28;20211;-68
2022/12/22 20:30:02;;;;;;;16.30;10.20;;;8.30;99.90;;;;;;8262998;28;20613;-68
2022/12/22 20:34:03;;;;;;;3.00;2.30;;;8.20;99.90;;;;;;8252831;28;20321;-69
2022/12/22 20:38:21;;;;;;;4.43;3.40;;;8.00;99.90;;;;;;8251499;28;20198;-69
2022/12/22 20:42:23;;;;;;;2.57;2.37;;;7.90;99.90;;;;;;8248553;28;20250;-68
2022/12/22 20:46:28;;;;;;;3.20;2.33;;;7.80;99.90;;;;;;8264802;28;20234;-69
2022/12/22 20:50:32;;;;;;;2.67;2.40;;;7.70;99.90;;;;;;8264005;28;20235;-68
2022/12/22 20:54:33;;;;;;;3.07;2.63;;;7.70;99.90;;;;;;8262985;28;20203;-69
2022/12/22 20:58:34;;;;;;;2.80;2.60;;;7.60;99.90;;;;;;8263734;28;20587;-69
2022/12/22 21:02:35;;;;;;;3.93;2.30;;;7.40;99.90;;;;;;8264933;28;20249;-69
2022/12/22 21:06:41;;;;;;;2.73;2.30;;;7.30;99.90;;;;;;8266492;28;20211;-69
2022/12/22 21:10:44;;;;;;;2.63;2.40;;;7.10;99.90;;;;;;8265684;28;20226;-68
2022/12/22 21:14:45;;;;;;;2.87;2.50;;;7.00;99.90;;;;;;8253908;28;20238;-69
2022/12/22 21:18:46;;;;;;;3.33;2.80;;;6.80;99.90;;;;;;8273693;28;20301;-68
2022/12/22 21:22:47;;;;;;;4.00;3.07;;;6.90;99.90;;;;;;8269496;28;20225;-68
2022/12/22 21:26:52;;;;;;;3.90;3.30;;;7.00;99.90;;;;;;8269245;28;20593;-69
2022/12/22 21:30:52;;;;;;;4.37;3.40;;;7.20;99.90;;;;;;8272452;28;20661;-69
2022/12/22 21:34:53;;;;;;;6.07;3.70;;;7.10;99.90;;;;;;8266472;28;20223;-69
2022/12/22 21:38:57;;;;;;;4.13;3.73;;;7.00;99.90;;;;;;8267273;28;20266;-69
2022/12/22 21:42:58;;;;;;;5.23;4.13;;;6.80;99.90;;;;;;8269912;28;20190;-69
2022/12/22 21:47:00;;;;;;;6.40;4.43;;;6.80;99.90;;;;;;8269643;28;20214;-69
2022/12/22 21:51:01;;;;;;;6.40;4.10;;;6.70;99.90;;;;;;8269462;28;20207;-68
2022/12/22 21:55:04;;;;;;;6.03;4.27;;;6.60;99.90;;;;;;8268572;28;20428;-68
2022/12/22 21:59:04;;;;;;;7.40;4.03;;;6.50;99.90;;;;;;8253720;28;20187;-68
2022/12/22 22:03:06;;;;;;;5.80;4.87;;;6.40;99.90;;;;;;8268029;28;20179;-69
2022/12/22 22:07:07;;;;;;;7.37;5.37;;;6.40;99.90;;;;;;8256283;28;20225;-69
2022/12/22 22:11:22;;;;;;;6.13;5.17;;;6.40;99.90;;;;;;8271218;28;20191;-68
2022/12/22 22:15:24;;;;;;;7.13;5.93;;;6.30;99.90;;;;;;8250816;28;20194;-69
2022/12/22 22:19:25;;;;;;;9.10;6.73;;;6.30;99.90;;;;;;8265963;28;20501;-69
2022/12/22 22:23:26;;;;;;;8.17;6.60;;;6.20;99.90;;;;;;8265753;28;20211;-69
2022/12/22 22:27:27;;;;;;;7.13;5.63;;;6.20;99.90;;;;;;8272037;28;20208;-69
2022/12/22 22:31:28;;;;;;;7.20;5.83;;;6.10;99.90;;;;;;8263318;28;20190;-69
2022/12/22 22:35:28;;;;;;;9.20;6.53;;;6.00;99.90;;;;;;8271598;28;20249;-69
2022/12/22 22:39:29;;;;;;;7.20;5.50;;;5.90;99.90;;;;;;8253478;28;20228;-69
2022/12/22 22:43:30;;;;;;;7.67;6.17;;;5.80;99.90;;;;;;8266275;28;20208;-69
2022/12/22 22:47:31;;;;;;;8.47;6.20;;;5.80;99.90;;;;;;8263391;28;20249;-69
2022/12/22 22:51:32;;;;;;;7.43;6.10;;;5.70;99.90;;;;;;8269269;28;20184;-69
2022/12/22 22:55:33;;;;;;;9.47;7.23;;;5.60;99.90;;;;;;8248073;28;20604;-69
2022/12/22 22:59:34;;;;;;;8.67;6.60;;;5.70;99.90;;;;;;8271442;28;20267;-69
2022/12/22 23:03:35;;;;;;;11.97;7.47;;;5.80;99.90;;;;;;8253125;28;20192;-69
2022/12/22 23:07:36;;;;;;;10.83;7.60;;;5.80;99.90;;;;;;8256088;28;20231;-69
2022/12/22 23:11:37;;;;;;;12.10;8.00;;;5.80;99.90;;;;;;8255821;28;20193;-69
2022/12/22 23:15:38;;;;;;;11.70;8.20;;;5.90;99.90;;;;;;8265856;28;20196;-69
2022/12/22 23:19:39;;;;;;;13.57;8.87;;;6.00;99.90;;;;;;8267675;28;20191;-69
2022/12/22 23:23:40;;;;;;;11.90;7.97;;;6.00;99.90;;;;;;8255225;28;20191;-69
2022/12/22 23:27:41;;;;;;;13.40;8.90;;;6.00;99.90;;;;;;8263941;28;20219;-70
2022/12/22 23:31:41;;;;;;;13.20;9.03;;;6.10;99.90;;;;;;8265856;28;20188;-70
2022/12/22 23:35:46;;;;;;;14.07;9.20;;;6.10;99.90;;;;;;8252334;28;20222;-70
2022/12/22 23:39:46;;;;;;;14.70;9.43;;;6.20;99.90;;;;;;8267011;28;20235;-70
2022/12/22 23:43:49;;;;;;;15.80;10.23;;;6.20;99.90;;;;;;8259822;28;20190;-70
2022/12/22 23:47:50;;;;;;;19.60;11.67;;;6.30;99.90;;;;;;8262037;28;20223;-70
2022/12/22 23:51:51;;;;;;;17.03;10.77;;;6.30;99.90;;;;;;8247601;28;20218;-70
2022/12/22 23:55:52;;;;;;;15.53;10.43;;;6.30;99.90;;;;;;8266581;28;20231;-70
2022/12/22 23:59:53;;;;;;;14.13;10.20;;;6.20;99.90;;;;;;8269389;28;20191;-70
